Time;durP1;ratioP1;P1;durP2;ratioP2;P2;SDS_P1;SDS_P2;PMS_P1;PMS_P2;Temp;Humidity;BMP_temperature;BMP_pressure;BME280_temperature;BME280_humidity;BME280_pressure;Samples;Min_cycle;Max_cycle;Signal;HPM_P1;HPM_P2
2022/08/20 00:01:46;;;;;;;;;;;17.10;61.20;;;;;;5087000;28;19908;-78
2022/08/20 00:04:13;;;;;;;;;;;17.10;61.20;;;;;;5085935;28;20215;-78
2022/08/20 00:06:39;;;;;;;;;;;17.20;61.30;;;;;;5089705;28;19953;-78
2022/08/20 00:09:04;;;;;;;;;;;17.20;61.30;;;;;;5089424;28;19908;-78
2022/08/20 00:11:32;;;;;;;;;;;17.20;61.30;;;;;;5089407;28;20421;-78
2022/08/20 00:13:59;;;;;;;;;;;17.20;61.20;;;;;;5089231;28;19947;-78
2022/08/20 00:16:26;;;;;;;;;;;17.20;61.20;;;;;;5090463;28;19977;-78
2022/08/20 00:18:52;;;;;;;;;;;17.20;61.30;;;;;;5088922;28;19916;-79
2022/08/20 00:21:19;;;;;;;;;;;17.10;61.20;;;;;;5089175;28;19915;-78
2022/08/20 00:23:45;;;;;;;;;;;17.10;61.30;;;;;;5088927;28;19914;-78
2022/08/20 00:26:11;;;;;;;;;;;17.00;61.20;;;;;;5090542;28;20011;-79
2022/08/20 00:28:37;;;;;;;;;;;17.00;61.30;;;;;;5089294;28;20011;-79
2022/08/20 00:31:04;;;;;;;;;;;16.90;61.30;;;;;;5090625;28;19920;-78
2022/08/20 00:33:30;;;;;;;;;;;16.90;61.40;;;;;;5090668;28;19908;-78
2022/08/20 00:35:56;;;;;;;;;;;16.90;61.40;;;;;;5089434;28;20293;-78
2022/08/20 00:38:23;;;;;;;;;;;16.90;61.50;;;;;;5090428;28;19964;-78
2022/08/20 00:40:50;;;;;;;;;;;16.90;61.40;;;;;;5089318;28;19920;-78
2022/08/20 00:43:42;;;;;;;;;;;17.00;61.50;;;;;;5090674;28;19916;-78
2022/08/20 00:46:19;;;;;;;;;;;17.00;61.50;;;;;;5087500;28;20392;-78
2022/08/20 00:48:46;;;;;;;;;;;17.20;61.50;;;;;;5090619;28;19909;-78
2022/08/20 00:51:27;;;;;;;;;;;17.20;61.40;;;;;;5089226;28;19915;-79
2022/08/20 00:53:55;;;;;;;;;;;17.20;61.40;;;;;;5090587;28;19915;-78
2022/08/20 00:56:21;;;;;;;;;;;17.20;61.40;;;;;;5090300;28;19908;-78
2022/08/20 00:58:48;;;;;;;;;;;17.20;61.40;;;;;;5090116;28;20043;-78
2022/08/20 01:01:14;;;;;;;;;;;17.30;61.40;;;;;;5088928;28;19994;-79
2022/08/20 01:03:41;;;;;;;;;;;17.20;61.30;;;;;;5089935;28;20011;-78
2022/08/20 01:06:10;;;;;;;;;;;17.20;61.30;;;;;;5090122;28;20016;-79
2022/08/20 01:08:36;;;;;;;;;;;17.20;61.40;;;;;;5093659;28;20326;-79
2022/08/20 01:11:25;;;;;;;;;;;17.30;61.40;;;;;;5088626;28;19961;-79
2022/08/20 01:13:50;;;;;;;;;;;17.20;61.40;;;;;;5089735;28;19919;-79
2022/08/20 01:16:22;;;;;;;;;;;17.20;61.40;;;;;;5089827;28;19915;-79
2022/08/20 01:18:48;;;;;;;;;;;17.20;61.40;;;;;;5088838;28;19954;-79
2022/08/20 01:21:15;;;;;;;;;;;17.20;61.50;;;;;;5088613;28;19916;-79
2022/08/20 01:23:44;;;;;;;;;;;17.20;61.50;;;;;;5089864;28;19959;-79
2022/08/20 01:26:12;;;;;;;;;;;17.20;61.50;;;;;;5089555;28;19955;-79
2022/08/20 01:28:40;;;;;;;;;;;17.20;61.50;;;;;;5089694;28;19913;-79
2022/08/20 01:31:07;;;;;;;;;;;17.30;61.50;;;;;;5089884;28;19908;-80
2022/08/20 01:33:32;;;;;;;;;;;17.30;61.50;;;;;;5089485;28;19914;-79
2022/08/20 01:35:59;;;;;;;;;;;17.30;61.50;;;;;;5088228;28;19998;-79
2022/08/20 01:38:25;;;;;;;;;;;17.30;61.50;;;;;;5089753;28;19912;-79
2022/08/20 01:40:51;;;;;;;;;;;17.40;61.60;;;;;;5089459;28;19966;-79
2022/08/20 01:43:17;;;;;;;;;;;17.30;61.50;;;;;;5089570;28;19908;-79
2022/08/20 01:45:42;;;;;;;;;;;17.40;61.50;;;;;;5089343;28;19964;-79
2022/08/20 01:48:08;;;;;;;;;;;17.40;61.60;;;;;;5089211;28;20284;-79
2022/08/20 01:50:35;;;;;;;;;;;17.40;61.50;;;;;;5089265;28;19912;-79
2022/08/20 01:53:15;;;;;;;;;;;17.40;61.50;;;;;;5089152;28;19987;-79
2022/08/20 01:55:41;;;;;;;;;;;17.40;61.50;;;;;;5089133;28;19953;-79
2022/08/20 01:58:07;;;;;;;;;;;17.40;61.50;;;;;;5070658;28;20368;-79
2022/08/20 02:00:34;;;;;;;;;;;17.40;61.50;;;;;;5089101;28;19915;-79
2022/08/20 02:03:01;;;;;;;;;;;17.40;62.00;;;;;;5088997;28;19919;-79
2022/08/20 02:05:28;;;;;;;;;;;17.40;61.50;;;;;;5088698;28;19912;-79
2022/08/20 02:07:54;;;;;;;;;;;17.40;61.50;;;;;;5088752;28;20344;-79
2022/08/20 02:10:20;;;;;;;;;;;17.50;61.60;;;;;;5089266;28;19923;-79
2022/08/20 02:12:46;;;;;;;;;;;17.50;61.50;;;;;;5088736;28;19995;-79
2022/08/20 02:15:12;;;;;;;;;;;17.50;61.50;;;;;;5087513;28;20054;-78
2022/08/20 02:17:38;;;;;;;;;;;17.50;61.50;;;;;;5088479;28;19946;-79
2022/08/20 02:20:16;;;;;;;;;;;17.50;61.60;;;;;;5088701;28;19908;-78
2022/08/20 02:22:52;;;;;;;;;;;17.50;61.60;;;;;;5088838;28;20325;-77
2022/08/20 02:25:19;;;;;;;;;;;17.50;61.60;;;;;;5088560;28;19998;-78
2022/08/20 02:27:45;;;;;;;;;;;17.50;61.60;;;;;;5087416;28;19912;-78
2022/08/20 02:30:13;;;;;;;;;;;17.50;61.60;;;;;;5087062;28;19942;-78
2022/08/20 02:32:38;;;;;;;;;;;17.50;61.60;;;;;;5088428;28;19918;-78
2022/08/20 02:35:07;;;;;;;;;;;17.50;61.60;;;;;;5087362;28;20369;-78
2022/08/20 02:37:33;;;;;;;;;;;17.50;61.60;;;;;;5088171;28;19965;-78
2022/08/20 02:39:59;;;;;;;;;;;17.50;61.60;;;;;;5088314;28;20027;-78
2022/08/20 02:42:25;;;;;;;;;;;17.40;61.60;;;;;;5088157;28;20420;-78
2022/08/20 02:44:51;;;;;;;;;;;17.40;61.60;;;;;;5088304;28;20334;-78
2022/08/20 02:47:17;;;;;;;;;;;17.30;61.50;;;;;;5088076;28;19913;-78
2022/08/20 02:49:42;;;;;;;;;;;17.20;61.50;;;;;;5088237;28;19923;-78
2022/08/20 02:52:08;;;;;;;;;;;17.10;61.60;;;;;;5088066;28;20018;-78
2022/08/20 02:54:34;;;;;;;;;;;17.00;61.70;;;;;;5088126;28;20310;-78
2022/08/20 02:57:02;;;;;;;;;;;17.00;61.80;;;;;;5086705;28;20356;-78
2022/08/20 02:59:28;;;;;;;;;;;17.00;61.80;;;;;;5087952;28;19909;-78
2022/08/20 03:01:53;;;;;;;;;;;17.00;61.90;;;;;;5087970;28;19909;-78
2022/08/20 03:04:19;;;;;;;;;;;17.00;61.80;;;;;;5087896;28;20003;-78
2022/08/20 03:06:44;;;;;;;;;;;17.00;61.80;;;;;;5088043;28;20439;-78
2022/08/20 03:09:10;;;;;;;;;;;17.00;61.80;;;;;;5087993;28;19916;-78
2022/08/20 03:11:38;;;;;;;;;;;17.00;61.70;;;;;;5087830;28;19916;-78
2022/08/20 03:14:05;;;;;;;;;;;16.90;61.70;;;;;;5086913;28;20299;-78
2022/08/20 03:16:31;;;;;;;;;;;16.90;61.80;;;;;;5087974;28;19920;-78
2022/08/20 03:18:56;;;;;;;;;;;16.90;61.80;;;;;;5087698;28;19916;-78
2022/08/20 03:21:22;;;;;;;;;;;16.80;61.90;;;;;;5087866;28;19920;-78
2022/08/20 03:23:47;;;;;;;;;;;16.80;61.90;;;;;;5087767;28;20279;-78
2022/08/20 03:26:13;;;;;;;;;;;16.80;61.90;;;;;;5069719;28;19927;-78
2022/08/20 03:28:39;;;;;;;;;;;16.80;61.90;;;;;;5087651;28;19912;-79
2022/08/20 03:31:05;;;;;;;;;;;16.80;62.00;;;;;;5087693;28;20082;-78
2022/08/20 03:33:31;;;;;;;;;;;16.80;62.00;;;;;;5087583;28;19938;-78
2022/08/20 03:35:57;;;;;;;;;;;16.80;62.00;;;;;;5086366;28;20007;-78
2022/08/20 03:38:23;;;;;;;;;;;16.80;62.00;;;;;;5087500;28;19916;-78
2022/08/20 03:40:49;;;;;;;;;;;16.80;62.00;;;;;;5088856;28;19923;-78
2022/08/20 03:43:15;;;;;;;;;;;16.80;62.00;;;;;;5091646;28;20008;-78
2022/08/20 03:45:42;;;;;;;;;;;16.80;62.00;;;;;;5091527;28;20369;-78
2022/08/20 03:48:09;;;;;;;;;;;16.90;62.00;;;;;;5090148;28;19999;-78
2022/08/20 03:50:35;;;;;;;;;;;16.90;62.00;;;;;;5091580;28;19912;-78
2022/08/20 03:53:01;;;;;;;;;;;16.90;61.90;;;;;;5091751;28;19923;-78
2022/08/20 03:55:28;;;;;;;;;;;16.90;62.40;;;;;;5091491;28;20330;-78
2022/08/20 03:57:55;;;;;;;;;;;16.90;61.90;;;;;;5090987;28;19919;-78
2022/08/20 04:00:50;;;;;;;;;;;16.80;61.90;;;;;;5091407;28;19951;-78
2022/08/20 04:03:16;;;;;;;;;;;16.80;61.90;;;;;;5077941;28;19912;-78
2022/08/20 04:05:42;;;;;;;;;;;16.70;61.90;;;;;;5089945;28;19912;-78
2022/08/20 04:08:09;;;;;;;;;;;16.70;62.00;;;;;;5091058;28;19908;-78
2022/08/20 04:10:35;;;;;;;;;;;16.60;62.00;;;;;;5089665;28;19965;-78
2022/08/20 04:13:02;;;;;;;;;;;16.60;62.00;;;;;;5090965;28;20392;-78
2022/08/20 04:15:27;;;;;;;;;;;16.60;62.00;;;;;;5089776;28;20295;-78
2022/08/20 04:17:53;;;;;;;;;;;16.50;62.00;;;;;;5090973;28;19942;-78
2022/08/20 04:20:22;;;;;;;;;;;16.50;62.10;;;;;;5090887;28;20362;-78
2022/08/20 04:22:48;;;;;;;;;;;16.50;62.10;;;;;;5091381;28;20207;-78
2022/08/20 04:25:14;;;;;;;;;;;16.50;62.10;;;;;;5090811;28;19923;-79
2022/08/20 04:27:39;;;;;;;;;;;16.50;62.10;;;;;;5089389;28;20332;-78
2022/08/20 04:30:06;;;;;;;;;;;16.40;62.10;;;;;;5090739;28;19912;-78
2022/08/20 04:32:35;;;;;;;;;;;16.40;62.10;;;;;;5090675;28;20209;-79
2022/08/20 04:35:00;;;;;;;;;;;16.40;62.10;;;;;;5089472;28;20533;-78
2022/08/20 04:37:26;;;;;;;;;;;16.40;62.10;;;;;;5072292;28;20038;-78
2022/08/20 04:42:36;;;;;;;;;;;16.40;62.20;;;;;;5090540;28;19942;-78
2022/08/20 04:45:05;;;;;;;;;;;16.30;62.10;;;;;;5089176;28;20413;-78
2022/08/20 04:47:31;;;;;;;;;;;16.30;62.10;;;;;;5090234;28;19908;-78
2022/08/20 04:49:59;;;;;;;;;;;16.30;62.20;;;;;;5088922;28;19937;-67
2022/08/20 04:52:26;;;;;;;;;;;16.30;62.20;;;;;;5089107;28;19927;-79
2022/08/20 04:54:51;;;;;;;;;;;16.30;62.20;;;;;;5090167;28;19958;-78
2022/08/20 04:57:17;;;;;;;;;;;16.30;62.20;;;;;;5090100;28;19959;-79
2022/08/20 04:59:44;;;;;;;;;;;16.30;62.20;;;;;;5090233;28;19920;-79
2022/08/20 05:02:09;;;;;;;;;;;16.30;62.20;;;;;;5090035;28;19912;-79
2022/08/20 05:04:36;;;;;;;;;;;16.30;62.20;;;;;;5088828;28;19965;-79
2022/08/20 05:07:02;;;;;;;;;;;16.30;62.20;;;;;;5090445;28;19919;-79
2022/08/20 05:09:27;;;;;;;;;;;16.20;62.10;;;;;;5072035;28;19916;-79
2022/08/20 05:11:53;;;;;;;;;;;16.20;62.10;;;;;;5089861;28;19916;-79
2022/08/20 05:14:18;;;;;;;;;;;16.20;62.10;;;;;;5090341;28;19912;-79
2022/08/20 05:16:44;;;;;;;;;;;16.20;62.10;;;;;;5089845;28;19995;-79
2022/08/20 05:19:11;;;;;;;;;;;16.20;62.20;;;;;;5089702;28;19920;-79
2022/08/20 05:21:37;;;;;;;;;;;16.20;62.20;;;;;;5089671;28;19920;-79
2022/08/20 05:24:02;;;;;;;;;;;16.20;62.30;;;;;;5089754;28;19912;-79
2022/08/20 05:26:28;;;;;;;;;;;16.10;62.20;;;;;;5089606;28;20364;-79
2022/08/20 05:28:53;;;;;;;;;;;16.10;62.20;;;;;;5089594;28;20018;-79
2022/08/20 05:31:19;;;;;;;;;;;16.10;62.20;;;;;;5087873;28;19916;-79
2022/08/20 05:33:45;;;;;;;;;;;16.10;62.20;;;;;;5087977;28;19912;-79
2022/08/20 05:36:10;;;;;;;;;;;16.10;62.20;;;;;;5089302;28;19923;-79
2022/08/20 05:38:36;;;;;;;;;;;16.20;62.30;;;;;;5088130;28;19965;-79
2022/08/20 05:41:02;;;;;;;;;;;16.20;62.30;;;;;;5089309;28;20303;-79
2022/08/20 05:43:28;;;;;;;;;;;16.20;62.30;;;;;;5088051;28;20310;-79
2022/08/20 05:45:56;;;;;;;;;;;16.20;62.30;;;;;;5088047;28;20050;-79
2022/08/20 05:48:22;;;;;;;;;;;16.20;62.20;;;;;;5089274;28;19908;-79
2022/08/20 05:50:49;;;;;;;;;;;16.30;62.30;;;;;;5087959;28;20245;-79
2022/08/20 05:53:15;;;;;;;;;;;16.40;62.20;;;;;;5087995;28;20017;-79
2022/08/20 05:55:41;;;;;;;;;;;16.40;62.20;;;;;;5087804;28;19915;-79
2022/08/20 05:58:12;;;;;;;;;;;16.50;62.20;;;;;;5088809;28;19920;-79
2022/08/20 06:00:38;;;;;;;;;;;16.50;62.20;;;;;;5088677;28;19908;-79
2022/08/20 06:05:48;;;;;;;;;;;16.70;62.30;;;;;;5088142;28;20018;-79
2022/08/20 06:08:15;;;;;;;;;;;16.80;62.30;;;;;;5088625;28;20364;-79
2022/08/20 06:10:42;;;;;;;;;;;16.80;62.20;;;;;;5088819;28;20334;-79
2022/08/20 06:13:08;;;;;;;;;;;16.90;62.70;;;;;;5088743;28;19912;-79
2022/08/20 06:15:34;;;;;;;;;;;17.00;62.20;;;;;;5088543;28;20449;-79
2022/08/20 06:18:00;;;;;;;;;;;17.00;62.10;;;;;;5088542;28;19916;-79
2022/08/20 06:20:27;;;;;;;;;;;17.10;62.10;;;;;;5087136;28;20390;-79
2022/08/20 06:22:53;;;;;;;;;;;17.20;62.20;;;;;;5087061;28;19912;-79
2022/08/20 06:25:19;;;;;;;;;;;17.20;62.10;;;;;;5088405;28;19916;-79
2022/08/20 06:27:44;;;;;;;;;;;17.30;62.10;;;;;;5070009;28;19974;-79
2022/08/20 06:30:11;;;;;;;;;;;17.30;62.10;;;;;;5088069;28;19912;-79
2022/08/20 06:32:37;;;;;;;;;;;17.30;62.00;;;;;;5087907;28;19951;-79
2022/08/20 06:35:04;;;;;;;;;;;17.40;62.10;;;;;;5088204;28;19981;-79
2022/08/20 06:37:31;;;;;;;;;;;17.40;62.10;;;;;;5088137;28;19919;-79
2022/08/20 06:39:59;;;;;;;;;;;17.40;62.10;;;;;;5088155;28;20030;-79
2022/08/20 06:42:24;;;;;;;;;;;17.40;62.10;;;;;;5088109;28;19920;-79
2022/08/20 06:44:50;;;;;;;;;;;17.40;62.00;;;;;;5087046;28;19920;-79
2022/08/20 06:47:16;;;;;;;;;;;17.40;62.00;;;;;;5088136;28;19916;-79
2022/08/20 06:49:42;;;;;;;;;;;17.50;62.60;;;;;;5086819;28;19912;-79
2022/08/20 06:52:07;;;;;;;;;;;17.50;62.10;;;;;;5086757;28;19912;-79
2022/08/20 06:54:33;;;;;;;;;;;17.50;62.10;;;;;;5086589;28;20455;-78
2022/08/20 06:56:59;;;;;;;;;;;17.50;62.00;;;;;;5087929;28;19918;-79
2022/08/20 06:59:24;;;;;;;;;;;17.50;62.00;;;;;;5086551;28;19944;-78
2022/08/20 07:01:50;;;;;;;;;;;17.60;62.10;;;;;;5087947;28;19908;-78
2022/08/20 07:04:16;;;;;;;;;;;17.60;62.10;;;;;;5086613;28;19931;-79
2022/08/20 07:06:42;;;;;;;;;;;17.50;62.10;;;;;;5087882;28;19920;-78
2022/08/20 07:09:08;;;;;;;;;;;17.50;62.10;;;;;;5069836;28;20279;-78
2022/08/20 07:11:34;;;;;;;;;;;17.60;62.20;;;;;;5086834;28;19961;-78
2022/08/20 07:14:00;;;;;;;;;;;17.60;62.10;;;;;;5086684;28;19916;-78
2022/08/20 07:16:26;;;;;;;;;;;17.70;62.20;;;;;;5087000;28;20295;-78
2022/08/20 07:18:51;;;;;;;;;;;18.00;62.30;;;;;;5086221;28;19916;-78
2022/08/20 07:21:17;;;;;;;;;;;18.30;62.10;;;;;;5086638;28;19962;-77
2022/08/20 07:23:42;;;;;;;;;;;18.70;62.00;;;;;;5087832;28;19912;-77
2022/08/20 07:26:08;;;;;;;;;;;19.00;61.80;;;;;;5087630;28;19908;-78
2022/08/20 07:28:33;;;;;;;;;;;19.30;61.70;;;;;;5086569;28;20057;-78
2022/08/20 07:33:43;;;;;;;;;;;19.40;61.40;;;;;;5087842;28;19922;-79
2022/08/20 07:36:09;;;;;;;;;;;19.20;61.40;;;;;;5087859;28;19912;-79
2022/08/20 07:38:35;;;;;;;;;;;19.10;61.60;;;;;;5085929;28;19961;-79
2022/08/20 07:41:09;;;;;;;;;;;18.90;61.60;;;;;;5087296;28;19924;-79
2022/08/20 07:43:34;;;;;;;;;;;18.80;62.00;;;;;;5087166;28;19908;-79
2022/08/20 07:46:01;;;;;;;;;;;19.70;63.10;;;;;;5087448;28;19908;-79
2022/08/20 07:48:30;;;;;;;;;;;21.00;62.50;;;;;;5069046;28;20057;-79
2022/08/20 07:50:56;;;;;;;;;;;22.30;61.50;;;;;;5087060;28;20306;-79
2022/08/20 07:53:22;;;;;;;;;;;23.30;60.70;;;;;;5087027;28;19908;-80
2022/08/20 07:55:48;;;;;;;;;;;24.10;59.90;;;;;;5085454;28;19912;-79
2022/08/20 07:58:16;;;;;;;;;;;24.60;59.50;;;;;;5086698;28;20054;-80
2022/08/20 08:00:41;;;;;;;;;;;25.10;59.40;;;;;;5086615;28;19954;-79
2022/08/20 08:03:08;;;;;;;;;;;25.50;59.40;;;;;;5087171;28;20314;-80
2022/08/20 08:05:35;;;;;;;;;;;26.00;59.40;;;;;;5086082;28;20360;-80
2022/08/20 08:08:01;;;;;;;;;;;26.40;59.40;;;;;;5086908;28;19954;-80
2022/08/20 08:10:26;;;;;;;;;;;26.80;59.50;;;;;;5085772;28;19947;-80
2022/08/20 08:12:54;;;;;;;;;;;27.20;59.50;;;;;;5085808;28;19912;-79
2022/08/20 08:15:31;;;;;;;;;;;27.40;59.40;;;;;;5086660;28;19916;-79
2022/08/20 08:17:59;;;;;;;;;;;27.70;59.50;;;;;;5086780;28;19913;-79
2022/08/20 08:20:25;;;;;;;;;;;27.90;59.50;;;;;;5086796;28;19961;-79
2022/08/20 08:22:51;;;;;;;;;;;28.00;59.50;;;;;;5085277;28;19988;-79
2022/08/20 08:25:17;;;;;;;;;;;28.10;59.60;;;;;;5086682;28;19912;-79
2022/08/20 08:27:46;;;;;;;;;;;28.20;59.80;;;;;;5087826;28;19970;-79
2022/08/20 08:30:12;;;;;;;;;;;28.20;59.80;;;;;;5090433;28;19994;-80
2022/08/20 08:33:26;;;;;;;;;;;28.40;59.80;;;;;;5090189;28;20281;-80
2022/08/20 08:35:24;;;;;;;;;;;28.40;60.00;;;;;;5090199;28;19916;-80
2022/08/20 08:37:49;;;;;;;;;;;28.40;60.10;;;;;;5090146;28;19939;-80
2022/08/20 08:40:15;;;;;;;;;;;28.50;60.20;;;;;;5090304;28;20360;-80
2022/08/20 08:42:47;;;;;;;;;;;28.60;60.70;;;;;;5089124;28;19928;-80
2022/08/20 08:45:14;;;;;;;;;;;28.80;60.30;;;;;;5090292;28;19911;-80
2022/08/20 08:47:40;;;;;;;;;;;28.80;60.20;;;;;;5090028;28;19916;-79
2022/08/20 08:50:08;;;;;;;;;;;28.90;60.40;;;;;;5089997;28;19974;-80
2022/08/20 08:52:35;;;;;;;;;;;29.20;60.60;;;;;;5091266;28;19912;-77
2022/08/20 08:55:03;;;;;;;;;;;29.30;60.40;;;;;;5091536;28;19916;-77
2022/08/20 08:57:28;;;;;;;;;;;29.30;60.40;;;;;;5090826;28;19946;-77
2022/08/20 08:59:58;;;;;;;;;;;29.30;60.50;;;;;;5091256;28;19915;-77
2022/08/20 09:02:25;;;;;;;;;;;29.50;60.70;;;;;;5091218;28;20369;-77
2022/08/20 09:04:54;;;;;;;;;;;29.80;60.90;;;;;;5091337;28;19919;-77
2022/08/20 09:07:22;;;;;;;;;;;30.20;60.90;;;;;;5091332;28;19912;-77
2022/08/20 09:09:48;;;;;;;;;;;30.10;60.30;;;;;;5089916;28;19955;-77
2022/08/20 09:12:17;;;;;;;;;;;30.00;60.70;;;;;;5092081;28;19935;-78
2022/08/20 09:14:45;;;;;;;;;;;29.80;60.20;;;;;;5091329;28;19912;-77
2022/08/20 09:17:10;;;;;;;;;;;29.40;60.40;;;;;;5091552;28;19935;-78
2022/08/20 09:19:36;;;;;;;;;;;29.30;61.10;;;;;;5091347;28;19916;-78
2022/08/20 09:22:12;;;;;;;;;;;29.60;61.50;;;;;;5072839;28;20545;-78
2022/08/20 09:24:37;;;;;;;;;;;30.00;61.10;;;;;;5091295;28;20014;-77
2022/08/20 09:27:03;;;;;;;;;;;30.30;61.10;;;;;;5090225;28;20712;-77
2022/08/20 09:29:29;;;;;;;;;;;30.40;60.70;;;;;;5090366;28;19935;-78
2022/08/20 09:32:05;;;;;;;;;;;30.30;60.30;;;;;;5090441;28;20006;-77
2022/08/20 09:34:33;;;;;;;;;;;29.90;60.50;;;;;;5089880;28;19908;-76
2022/08/20 09:36:59;;;;;;;;;;;29.40;60.50;;;;;;5089590;28;19954;-76
2022/08/20 09:39:24;;;;;;;;;;;28.70;60.30;;;;;;5090187;28;19912;-77
2022/08/20 09:41:50;;;;;;;;;;;28.10;60.60;;;;;;5090567;28;20382;-77
2022/08/20 09:44:16;;;;;;;;;;;27.70;60.90;;;;;;5089812;28;19916;-77
2022/08/20 09:46:42;;;;;;;;;;;27.20;60.80;;;;;;5087640;28;19908;-76
2022/08/20 09:49:07;;;;;;;;;;;26.60;60.70;;;;;;5071669;28;19926;-77
2022/08/20 09:51:33;;;;;;;;;;;26.10;61.30;;;;;;5090387;28;19912;-77
2022/08/20 09:53:58;;;;;;;;;;;26.00;61.50;;;;;;5090561;28;19934;-76
2022/08/20 09:56:24;;;;;;;;;;;25.80;61.40;;;;;;5089514;28;19916;-77
2022/08/20 09:58:52;;;;;;;;;;;25.60;61.30;;;;;;5089723;28;19919;-74
2022/08/20 10:01:18;;;;;;;;;;;25.70;61.80;;;;;;5088161;28;19911;-77
2022/08/20 10:03:47;;;;;;;;;;;26.20;62.30;;;;;;5090838;28;19943;-77
2022/08/20 10:06:13;;;;;;;;;;;27.20;62.50;;;;;;5090220;28;19908;-79
2022/08/20 10:08:39;;;;;;;;;;;28.30;62.30;;;;;;5090075;28;19996;-80
2022/08/20 10:11:05;;;;;;;;;;;29.30;61.90;;;;;;5090346;28;19935;-80
2022/08/20 10:13:31;;;;;;;;;;;29.90;61.50;;;;;;5090191;28;20012;-80
2022/08/20 10:15:56;;;;;;;;;;;30.20;60.90;;;;;;5092434;28;19964;-79
2022/08/20 10:18:22;;;;;;;;;;;30.20;60.80;;;;;;5089567;28;20225;-79
2022/08/20 10:20:47;;;;;;;;;;;30.70;61.30;;;;;;5091239;28;19919;-81
2022/08/20 10:23:13;;;;;;;;;;;30.60;60.00;;;;;;5090521;28;19908;-79
2022/08/20 10:25:40;;;;;;;;;;;29.70;59.80;;;;;;5090193;28;19915;-76
2022/08/20 10:28:05;;;;;;;;;;;28.90;60.20;;;;;;5091029;28;19909;-79
2022/08/20 10:30:31;;;;;;;;;;;28.40;60.70;;;;;;5069088;28;20042;-78
2022/08/20 10:32:57;;;;;;;;;;;28.00;61.00;;;;;;5077589;28;19908;-78
2022/08/20 10:35:22;;;;;;;;;;;28.10;61.80;;;;;;5090064;28;19935;-76
2022/08/20 10:37:48;;;;;;;;;;;28.40;61.90;;;;;;5088277;28;19923;-77
2022/08/20 10:40:14;;;;;;;;;;;28.40;61.10;;;;;;5071137;28;19918;-75
2022/08/20 10:42:43;;;;;;;;;;;27.90;60.70;;;;;;5088720;28;19974;-72
2022/08/20 10:45:10;;;;;;;;;;;27.50;60.90;;;;;;5089136;28;19994;-75
2022/08/20 10:47:35;;;;;;;;;;;27.00;60.80;;;;;;5089635;28;19907;-76
2022/08/20 10:50:03;;;;;;;;;;;27.00;62.00;;;;;;5088871;28;19915;-75
2022/08/20 10:52:29;;;;;;;;;;;27.30;61.90;;;;;;5092502;28;19915;-78
2022/08/20 10:54:55;;;;;;;;;;;27.60;61.80;;;;;;5089604;28;19912;-77
2022/08/20 10:57:25;;;;;;;;;;;28.10;62.10;;;;;;5080831;28;19931;-75
2022/08/20 10:59:51;;;;;;;;;;;28.80;61.90;;;;;;5089227;28;19915;-77
2022/08/20 11:02:17;;;;;;;;;;;28.50;60.70;;;;;;5089816;28;20327;-76
2022/08/20 11:04:43;;;;;;;;;;;27.90;60.50;;;;;;5070773;28;19912;-76
2022/08/20 11:07:10;;;;;;;;;;;27.90;61.80;;;;;;5088084;28;20086;-76
2022/08/20 11:09:35;;;;;;;;;;;28.50;62.30;;;;;;5089864;28;20470;-77
2022/08/20 11:12:01;;;;;;;;;;;29.30;62.30;;;;;;5089646;28;19912;-77
2022/08/20 11:14:26;;;;;;;;;;;29.30;61.20;;;;;;5088983;28;19912;-76
2022/08/20 11:16:52;;;;;;;;;;;28.80;60.90;;;;;;5088319;28;20370;-77
2022/08/20 11:19:18;;;;;;;;;;;28.90;61.70;;;;;;5087899;28;20354;-77
2022/08/20 11:21:43;;;;;;;;;;;28.80;61.10;;;;;;5088923;28;20400;-77
2022/08/20 11:24:09;;;;;;;;;;;28.50;61.20;;;;;;5088899;28;19912;-79
2022/08/20 11:26:34;;;;;;;;;;;28.40;61.70;;;;;;5089570;28;19980;-76
2022/08/20 11:29:00;;;;;;;;;;;29.00;62.40;;;;;;5089722;28;19919;-79
2022/08/20 11:31:25;;;;;;;;;;;29.50;61.70;;;;;;5089218;28;20268;-80
2022/08/20 11:33:51;;;;;;;;;;;29.80;62.00;;;;;;5070323;28;19912;-79
2022/08/20 11:36:16;;;;;;;;;;;30.00;61.70;;;;;;5088972;28;19912;-77
2022/08/20 11:38:42;;;;;;;;;;;29.90;61.10;;;;;;5088798;28;19991;-80
2022/08/20 11:41:07;;;;;;;;;;;29.50;60.80;;;;;;5088476;28;20000;-78
2022/08/20 11:43:33;;;;;;;;;;;28.90;60.80;;;;;;5088927;28;20367;-76
2022/08/20 11:46:05;;;;;;;;;;;28.80;61.70;;;;;;5090426;28;19938;-76
2022/08/20 11:48:31;;;;;;;;;;;29.10;62.10;;;;;;5088343;28;20271;-77
2022/08/20 11:50:57;;;;;;;;;;;29.10;61.30;;;;;;5087638;28;20003;-75
2022/08/20 11:53:22;;;;;;;;;;;28.80;61.10;;;;;;5087777;28;20242;-76
2022/08/20 11:55:48;;;;;;;;;;;28.60;61.30;;;;;;5087196;28;19977;-77
2022/08/20 11:58:13;;;;;;;;;;;29.10;62.20;;;;;;5089165;28;19924;-75
2022/08/20 12:00:39;;;;;;;;;;;29.70;62.10;;;;;;5088868;28;19908;-77
2022/08/20 12:03:05;;;;;;;;;;;30.10;61.70;;;;;;5091979;28;19918;-76
2022/08/20 12:05:31;;;;;;;;;;;30.30;61.70;;;;;;5092606;28;19933;-77
2022/08/20 12:07:59;;;;;;;;;;;30.60;62.00;;;;;;5091747;28;20302;-78
2022/08/20 12:10:25;;;;;;;;;;;31.10;62.20;;;;;;5091740;28;19908;-76
2022/08/20 12:12:51;;;;;;;;;;;31.50;62.00;;;;;;5091641;28;19909;-78
2022/08/20 12:15:16;;;;;;;;;;;31.50;61.60;;;;;;5091421;28;19919;-77
2022/08/20 12:17:42;;;;;;;;;;;31.30;61.40;;;;;;5091640;28;19927;-77
2022/08/20 12:20:09;;;;;;;;;;;31.10;61.40;;;;;;5091544;28;20357;-75
2022/08/20 12:22:34;;;;;;;;;;;31.00;61.70;;;;;;5091644;28;20011;-77
2022/08/20 12:25:00;;;;;;;;;;;31.20;61.90;;;;;;5091704;28;19912;-77
2022/08/20 12:27:27;;;;;;;;;;;31.00;61.40;;;;;;5090506;28;19916;-78
2022/08/20 12:29:54;;;;;;;;;;;30.70;61.20;;;;;;5091428;28;19921;-77
2022/08/20 12:32:20;;;;;;;;;;;30.10;61.10;;;;;;5090708;28;19912;-81
2022/08/20 12:34:46;;;;;;;;;;;30.00;61.80;;;;;;5091577;28;19912;-77
2022/08/20 12:37:14;;;;;;;;;;;29.70;61.40;;;;;;5091819;28;20272;-78
2022/08/20 12:39:40;;;;;;;;;;;29.50;61.40;;;;;;5091694;28;19908;-77
2022/08/20 12:42:07;;;;;;;;;;;29.30;61.60;;;;;;5091581;28;19967;-78
2022/08/20 12:44:33;;;;;;;;;;;28.90;61.40;;;;;;5090613;28;19908;-78
2022/08/20 12:47:07;;;;;;;;;;;28.70;61.40;;;;;;5092119;28;19908;-78
2022/08/20 12:49:34;;;;;;;;;;;28.50;61.50;;;;;;5089679;28;19985;-78
2022/08/20 12:51:59;;;;;;;;;;;28.30;61.40;;;;;;5090126;28;19916;-78
2022/08/20 12:54:25;;;;;;;;;;;28.50;61.90;;;;;;5091557;28;20448;-78
2022/08/20 12:56:51;;;;;;;;;;;28.40;61.80;;;;;;5091971;28;19908;-80
2022/08/20 12:59:16;;;;;;;;;;;28.00;61.00;;;;;;5073500;28;19927;-77
2022/08/20 13:01:42;;;;;;;;;;;27.80;61.40;;;;;;5091104;28;20359;-75
2022/08/20 13:04:08;;;;;;;;;;;27.70;61.50;;;;;;5091050;28;19916;-77
2022/08/20 13:06:33;;;;;;;;;;;27.60;61.40;;;;;;5090098;28;20288;-78
2022/08/20 13:08:59;;;;;;;;;;;27.50;61.40;;;;;;5073356;28;19963;-79
2022/08/20 13:11:24;;;;;;;;;;;27.50;61.50;;;;;;5091605;28;20007;-75
2022/08/20 13:13:50;;;;;;;;;;;27.40;61.10;;;;;;5089878;28;19908;-75
2022/08/20 13:16:15;;;;;;;;;;;27.30;61.20;;;;;;5089574;28;20010;-75
2022/08/20 13:18:41;;;;;;;;;;;27.40;61.60;;;;;;5090838;28;19912;-77
2022/08/20 13:21:07;;;;;;;;;;;27.70;61.90;;;;;;5090619;28;19965;-79
2022/08/20 13:23:32;;;;;;;;;;;28.10;62.10;;;;;;5088645;28;19924;-77
2022/08/20 13:25:58;;;;;;;;;;;28.40;61.80;;;;;;5072646;28;19913;-77
2022/08/20 13:28:23;;;;;;;;;;;28.40;61.70;;;;;;5089792;28;19912;-76
2022/08/20 13:30:49;;;;;;;;;;;28.40;61.50;;;;;;5090712;28;19926;-75
2022/08/20 13:33:15;;;;;;;;;;;28.10;61.30;;;;;;5088729;28;19912;-75
2022/08/20 13:35:40;;;;;;;;;;;28.00;61.40;;;;;;5090065;28;19920;-77
2022/08/20 13:38:06;;;;;;;;;;;27.80;61.30;;;;;;5088617;28;19993;-76
2022/08/20 13:40:31;;;;;;;;;;;27.50;61.20;;;;;;5088628;28;19913;-76
2022/08/20 13:42:58;;;;;;;;;;;27.30;61.30;;;;;;5090175;28;19916;-76
2022/08/20 13:45:24;;;;;;;;;;;27.20;61.50;;;;;;5089012;28;19908;-77
2022/08/20 13:47:53;;;;;;;;;;;27.10;61.40;;;;;;5090416;28;19965;-77
2022/08/20 13:50:20;;;;;;;;;;;27.00;61.40;;;;;;5090080;28;20418;-78
2022/08/20 13:52:45;;;;;;;;;;;26.70;61.10;;;;;;5089120;28;19954;-78
2022/08/20 13:55:17;;;;;;;;;;;26.50;61.00;;;;;;5071916;28;19948;-79
2022/08/20 13:57:43;;;;;;;;;;;26.40;61.30;;;;;;5090585;28;19918;-77
2022/08/20 14:00:12;;;;;;;;;;;26.30;61.30;;;;;;5089256;28;19912;-78
2022/08/20 14:02:38;;;;;;;;;;;26.40;61.30;;;;;;5089945;28;20011;-77
2022/08/20 14:05:04;;;;;;;;;;;26.40;61.00;;;;;;5090113;28;19912;-75
2022/08/20 14:07:30;;;;;;;;;;;26.30;60.90;;;;;;5089823;28;19912;-74
2022/08/20 14:10:04;;;;;;;;;;;26.20;60.80;;;;;;5071419;28;19936;-75
2022/08/20 14:12:30;;;;;;;;;;;26.10;60.90;;;;;;5088645;28;19915;-76
2022/08/20 14:14:55;;;;;;;;;;;25.90;60.80;;;;;;5089999;28;19920;-76
2022/08/20 14:17:23;;;;;;;;;;;25.70;60.70;;;;;;5071584;28;19939;-75
2022/08/20 14:19:49;;;;;;;;;;;25.50;60.80;;;;;;5089527;28;19923;-78
2022/08/20 14:22:17;;;;;;;;;;;25.40;61.10;;;;;;5089397;28;19988;-76